createdAt,value
2018-09-15T00:00:59.171Z,99129.84
2018-09-15T00:03:27.680Z,99126.22
2018-09-15T00:05:56.482Z,99134.41
2018-09-15T00:08:25.054Z,99134.80
2018-09-15T00:10:53.486Z,99134.32
2018-09-15T00:13:23.101Z,99134.20
2018-09-15T00:15:51.595Z,99136.14
2018-09-15T00:18:20.062Z,99142.27
2018-09-15T00:20:48.497Z,99138.47
2018-09-15T00:23:16.930Z,99144.92
2018-09-15T00:25:45.435Z,99141.12
2018-09-15T00:28:14.810Z,99142.01
2018-09-15T00:30:43.302Z,99144.72
2018-09-15T00:33:11.877Z,99141.31
2018-09-15T00:35:40.702Z,99133.13
2018-09-15T00:38:09.310Z,99134.30
2018-09-15T00:40:37.706Z,99135.50
2018-09-15T00:43:06.210Z,99132.63
2018-09-15T00:45:34.709Z,99139.14
2018-09-15T00:48:03.210Z,99142.70
2018-09-15T00:50:31.626Z,99147.76
2018-09-15T00:53:00.129Z,99147.11
2018-09-15T00:55:28.581Z,99139.41
2018-09-15T00:57:57.258Z,99137.70
2018-09-15T01:00:25.687Z,99135.40
2018-09-15T01:02:54.323Z,99131.99
2018-09-15T01:05:22.861Z,99136.01
2018-09-15T01:07:51.306Z,99134.56
2018-09-15T01:10:19.838Z,99138.69
2018-09-15T01:12:48.285Z,99141.55
2018-09-15T01:15:16.795Z,99144.15
2018-09-15T01:17:45.237Z,99152.34
2018-09-15T01:20:13.781Z,99145.22
2018-09-15T01:22:42.191Z,99151.75
2018-09-15T01:25:10.718Z,99150.39
2018-09-15T01:27:39.203Z,99148.61
2018-09-15T01:30:07.693Z,99152.02
2018-09-15T01:32:36.133Z,99149.96
2018-09-15T01:35:04.669Z,99146.42
2018-09-15T01:37:33.086Z,99148.28
2018-09-15T01:40:01.613Z,99152.72
2018-09-15T01:42:30.053Z,99152.41
2018-09-15T01:44:58.887Z,99151.96
2018-09-15T01:47:27.357Z,99146.07
2018-09-15T01:49:56.190Z,99149.45
2018-09-15T01:52:24.925Z,99154.09
2018-09-15T01:54:53.390Z,99153.88
2018-09-15T01:57:21.889Z,99152.78
2018-09-15T01:59:50.361Z,99155.98
2018-09-15T02:02:18.893Z,99160.06
2018-09-15T02:04:47.314Z,99154.86
2018-09-15T02:07:15.801Z,99156.20
2018-09-15T02:09:44.302Z,99153.98
2018-09-15T02:12:12.759Z,99164.42
2018-09-15T02:14:41.269Z,99157.78
2018-09-15T02:17:09.801Z,99157.45
2018-09-15T02:19:38.295Z,99155.92
2018-09-15T02:22:06.860Z,99156.00
2018-09-15T02:24:35.262Z,99159.96
2018-09-15T02:27:03.778Z,99150.55
2018-09-15T02:29:32.293Z,99154.95
2018-09-15T02:32:00.754Z,99157.06
2018-09-15T02:34:29.187Z,99153.05
2018-09-15T02:36:58.250Z,99152.22
2018-09-15T02:39:26.717Z,99148.27
2018-09-15T02:41:55.202Z,99147.31
2018-09-15T02:44:23.913Z,99153.00
2018-09-15T02:46:52.352Z,99154.28
2018-09-15T02:49:20.826Z,99153.10
2018-09-15T02:51:49.312Z,99154.14
2018-09-15T02:54:17.761Z,99157.57
2018-09-15T02:56:46.269Z,99162.36
2018-09-15T02:59:14.741Z,99161.50
2018-09-15T03:01:43.231Z,99167.31
2018-09-15T03:04:11.693Z,99167.80
2018-09-15T03:06:40.301Z,99166.66
2018-09-15T03:09:10.586Z,99171.83
2018-09-15T03:11:39.091Z,99178.56
2018-09-15T03:14:07.575Z,99189.90
2018-09-15T03:16:36.269Z,99182.88
2018-09-15T03:19:04.761Z,99178.72
2018-09-15T03:21:33.262Z,99187.32
2018-09-15T03:24:01.733Z,99188.75
2018-09-15T03:26:30.594Z,99191.80
2018-09-15T03:28:59.298Z,99188.32
2018-09-15T03:31:27.787Z,99190.68
2018-09-15T03:33:56.314Z,99186.98
2018-09-15T03:36:25.058Z,99194.89
2018-09-15T03:38:53.556Z,99195.31
2018-09-15T03:41:22.102Z,99199.27
2018-09-15T03:43:50.561Z,99196.75
2018-09-15T03:46:19.053Z,99202.59
2018-09-15T03:48:47.815Z,99201.74
2018-09-15T03:51:16.230Z,99210.53
2018-09-15T03:53:44.898Z,99215.77
2018-09-15T03:56:13.478Z,99214.34
2018-09-15T03:58:42.006Z,99216.91
2018-09-15T04:01:10.577Z,99214.14
2018-09-15T04:03:39.098Z,99220.89
2018-09-15T04:06:07.568Z,99212.03
2018-09-15T04:08:36.010Z,99212.16
2018-09-15T04:11:04.510Z,99217.48
2018-09-15T04:13:32.974Z,99221.85
2018-09-15T04:16:01.442Z,99224.09
2018-09-15T04:18:29.933Z,99225.86
2018-09-15T04:20:58.754Z,99230.20
2018-09-15T04:23:27.197Z,99228.55
2018-09-15T04:25:55.689Z,99230.12
2018-09-15T04:28:24.473Z,99233.19
2018-09-15T04:30:53.014Z,99228.09
2018-09-15T04:33:21.437Z,99233.19
2018-09-15T04:35:49.905Z,99229.36
2018-09-15T04:38:18.410Z,99234.33
2018-09-15T04:40:47.010Z,99240.48
2018-09-15T04:43:15.475Z,99238.50
2018-09-15T04:45:43.921Z,99245.87
2018-09-15T04:48:12.335Z,99249.16
2018-09-15T04:50:40.793Z,99248.98
2018-09-15T04:53:09.385Z,99253.17
2018-09-15T04:55:37.990Z,99255.77
2018-09-15T04:58:06.534Z,99262.33
2018-09-15T05:00:34.982Z,99258.03
2018-09-15T05:03:03.488Z,99265.95
2018-09-15T05:05:31.922Z,99265.35
2018-09-15T05:08:00.374Z,99271.02
2018-09-15T05:10:28.912Z,99274.33
2018-09-15T05:12:57.474Z,99278.81
2018-09-15T05:15:26.906Z,99282.49
2018-09-15T05:17:55.506Z,99283.56
2018-09-15T05:20:24.079Z,99289.66
2018-09-15T05:22:52.494Z,99281.39
2018-09-15T05:25:20.992Z,99287.22
2018-09-15T05:27:49.461Z,99278.81
2018-09-15T05:30:17.952Z,99287.52
2018-09-15T05:32:46.409Z,99290.83
2018-09-15T05:35:14.913Z,99292.67
2018-09-15T05:41:15.155Z,99295.70
2018-09-15T05:43:43.623Z,99300.75
2018-09-15T05:46:12.134Z,99303.94
2018-09-15T05:48:40.590Z,99309.05
2018-09-15T05:51:09.111Z,99310.27
2018-09-15T05:53:37.566Z,99313.47
2018-09-15T05:56:06.093Z,99316.85
2018-09-15T05:58:34.526Z,99315.16
2018-09-15T06:01:03.069Z,99314.81
2018-09-15T06:03:31.505Z,99319.92
2018-09-15T06:06:00.392Z,99318.92
2018-09-15T06:08:28.850Z,99317.30
2018-09-15T06:10:57.738Z,99306.64
2018-09-15T06:13:26.258Z,99311.52
2018-09-15T06:15:54.738Z,99311.12
2018-09-15T06:18:23.542Z,99311.12
2018-09-15T06:20:52.058Z,99305.86
2018-09-15T06:23:20.453Z,99314.04
2018-09-15T06:25:48.968Z,99307.81
2018-09-15T06:28:17.429Z,99315.11
2018-09-15T06:30:45.934Z,99311.46
2018-09-15T06:33:14.390Z,99313.85
2018-09-15T06:35:42.930Z,99316.92
2018-09-15T06:38:11.359Z,99318.02
2018-09-15T06:40:40.294Z,99316.55
2018-09-15T06:43:08.730Z,99319.20
2018-09-15T06:45:37.252Z,99321.77
2018-09-15T06:48:05.742Z,99319.07
2018-09-15T06:50:34.169Z,99329.91
2018-09-15T06:53:02.663Z,99327.77
2018-09-15T06:55:31.149Z,99331.62
2018-09-15T06:57:59.641Z,99334.11
2018-09-15T07:00:28.172Z,99337.80
2018-09-15T07:02:56.756Z,99347.23
2018-09-15T07:05:25.330Z,99348.64
2018-09-15T07:07:53.757Z,99345.39
2018-09-15T07:10:22.210Z,99361.08
2018-09-15T07:12:50.750Z,99358.01
2018-09-15T07:15:19.198Z,99359.56
2018-09-15T07:17:47.689Z,99361.63
2018-09-15T07:20:16.186Z,99362.05
2018-09-15T07:22:44.721Z,99349.67
2018-09-15T07:25:13.282Z,99351.58
2018-09-15T07:27:41.867Z,99351.59
2018-09-15T07:30:10.468Z,99351.53
2018-09-15T07:32:38.893Z,99347.62
2018-09-15T07:35:07.366Z,99354.94
2018-09-15T07:37:35.948Z,99358.30
2018-09-15T07:40:04.490Z,99362.41
2018-09-15T07:42:32.944Z,99368.27
2018-09-15T07:45:01.645Z,99371.62
2018-09-15T07:47:30.125Z,99380.47
2018-09-15T07:49:58.814Z,99377.71
2018-09-15T07:52:27.318Z,99383.07
2018-09-15T07:54:55.986Z,99386.28
2018-09-15T07:57:24.748Z,99384.94
2018-09-15T07:59:53.270Z,99386.42
2018-09-15T08:02:23.042Z,99382.62
2018-09-15T08:04:52.097Z,99385.97
2018-09-15T08:07:20.603Z,99378.99
2018-09-15T08:09:49.126Z,99370.84
2018-09-15T08:12:18.469Z,99382.36
2018-09-15T08:14:47.271Z,99381.13
2018-09-15T08:17:15.813Z,99373.30
2018-09-15T08:19:44.385Z,99377.52
2018-09-15T08:22:12.886Z,99380.02
2018-09-15T08:24:41.360Z,99373.22
2018-09-15T08:27:09.765Z,99370.88
2018-09-15T08:29:38.478Z,99368.68
2018-09-15T08:32:07.127Z,99375.37
2018-09-15T08:34:35.594Z,99376.31
2018-09-15T08:37:04.170Z,99373.65
2018-09-15T08:39:32.846Z,99379.23
2018-09-15T08:42:01.300Z,99376.03
2018-09-15T08:44:29.813Z,99378.36
2018-09-15T08:46:58.534Z,99377.11
2018-09-15T08:49:27.074Z,99384.91
2018-09-15T08:51:55.524Z,99381.36
2018-09-15T08:54:24.073Z,99379.41
2018-09-15T08:56:52.562Z,99378.84
2018-09-15T08:59:21.053Z,99377.14
2018-09-15T09:01:49.555Z,99380.66
2018-09-15T09:04:18.071Z,99378.00
2018-09-15T09:06:46.498Z,99382.27
2018-09-15T09:09:14.994Z,99374.83
2018-09-15T09:11:43.446Z,99373.14
2018-09-15T09:14:11.946Z,99376.75
2018-09-15T09:16:40.417Z,99375.45
2018-09-15T09:19:08.927Z,99383.06
2018-09-15T09:21:37.377Z,99376.12
2018-09-15T09:24:05.933Z,99370.72
2018-09-15T09:26:34.395Z,99374.48
2018-09-15T09:29:02.845Z,99382.13
2018-09-15T09:31:31.346Z,99380.31
2018-09-15T09:33:59.842Z,99377.22
2018-09-15T09:36:28.291Z,99378.67
2018-09-15T09:38:56.924Z,99378.23
2018-09-15T09:41:25.582Z,99376.55
2018-09-15T09:43:54.030Z,99370.58
2018-09-15T09:46:22.527Z,99370.86
2018-09-15T09:48:51.034Z,99369.44
2018-09-15T09:51:19.603Z,99375.91
2018-09-15T09:53:48.224Z,99376.44
2018-09-15T09:56:16.641Z,99378.17
2018-09-15T09:58:45.158Z,99373.12
2018-09-15T10:01:18.810Z,99372.69
2018-09-15T10:03:47.322Z,99372.95
2018-09-15T10:06:15.808Z,99372.05
2018-09-15T10:08:44.269Z,99375.06
2018-09-15T10:11:13.706Z,99370.06
2018-09-15T10:13:42.408Z,99368.63
2018-09-15T10:16:10.850Z,99365.55
2018-09-15T10:18:39.350Z,99362.00
2018-09-15T10:21:07.809Z,99357.61
2018-09-15T10:23:36.281Z,99356.81
2018-09-15T10:26:04.969Z,99359.72
2018-09-15T10:28:33.520Z,99362.73
2018-09-15T10:31:01.988Z,99360.99
2018-09-15T10:33:30.425Z,99356.25
2018-09-15T10:35:59.147Z,99349.09
2018-09-15T10:38:27.650Z,99355.25
2018-09-15T10:40:56.116Z,99348.36
2018-09-15T10:43:24.652Z,99344.30
2018-09-15T10:45:53.191Z,99341.86
2018-09-15T10:48:21.593Z,99336.00
2018-09-15T10:50:50.110Z,99342.66
2018-09-15T10:53:18.614Z,99338.77
2018-09-15T10:55:47.066Z,99340.05
2018-09-15T10:58:15.503Z,99338.62
2018-09-15T11:00:44.088Z,99336.92
2018-09-15T11:03:12.486Z,99333.56
2018-09-15T11:05:40.976Z,99326.14
2018-09-15T11:08:09.514Z,99327.20
2018-09-15T11:10:37.933Z,99333.34
2018-09-15T11:13:06.851Z,99336.02
2018-09-15T11:15:35.327Z,99334.08
2018-09-15T11:18:03.854Z,99333.09
2018-09-15T11:20:32.281Z,99333.80
2018-09-15T11:23:00.788Z,99331.09
2018-09-15T11:25:29.258Z,99332.17
2018-09-15T11:27:57.982Z,99334.44
2018-09-15T11:30:26.416Z,99333.62
2018-09-15T11:32:56.010Z,99333.38
2018-09-15T11:35:24.522Z,99336.23
2018-09-15T11:37:52.993Z,99329.39
2018-09-15T11:40:21.477Z,99327.81
2018-09-15T11:42:49.966Z,99317.91
2018-09-15T11:45:18.429Z,99322.21
2018-09-15T11:47:47.054Z,99318.61
2018-09-15T11:50:15.498Z,99316.24
2018-09-15T11:52:44.029Z,99320.41
2018-09-15T11:55:12.478Z,99317.52
2018-09-15T11:57:41.037Z,99309.30
2018-09-15T12:00:09.659Z,99310.62
2018-09-15T12:02:38.071Z,99299.75
2018-09-15T12:05:06.523Z,99303.18
2018-09-15T12:07:34.981Z,99303.80
2018-09-15T12:10:03.538Z,99299.75
2018-09-15T12:12:32.044Z,99294.27
2018-09-15T12:15:00.497Z,99300.69
2018-09-15T12:17:29.114Z,99295.93
2018-09-15T12:19:57.750Z,99291.75
2018-09-15T12:22:26.436Z,99285.66
2018-09-15T12:24:54.959Z,99282.61
2018-09-15T12:27:23.726Z,99282.67
2018-09-15T12:29:52.237Z,99282.85
2018-09-15T12:32:20.690Z,99275.45
2018-09-15T12:34:49.198Z,99277.95
2018-09-15T12:37:17.848Z,99271.97
2018-09-15T12:39:46.388Z,99279.45
2018-09-15T12:42:14.854Z,99281.30
2018-09-15T12:44:43.365Z,99273.07
2018-09-15T12:47:11.886Z,99278.38
2018-09-15T12:49:40.525Z,99277.87
2018-09-15T12:52:09.053Z,99280.06
2018-09-15T12:54:37.722Z,99285.86
2018-09-15T12:57:06.626Z,99274.36
2018-09-15T12:59:35.157Z,99276.84
2018-09-15T13:02:03.638Z,99266.25
2018-09-15T13:04:32.118Z,99270.60
2018-09-15T13:07:00.581Z,99261.20
2018-09-15T13:09:29.133Z,99267.89
2018-09-15T13:11:57.889Z,99255.77
2018-09-15T13:14:26.430Z,99251.23
2018-09-15T13:16:54.989Z,99262.52
2018-09-15T13:19:23.641Z,99253.19
2018-09-15T13:21:52.102Z,99245.30
2018-09-15T13:24:20.582Z,99246.00
2018-09-15T13:26:49.130Z,99248.20
2018-09-15T13:29:17.650Z,99241.17
2018-09-15T13:31:46.134Z,99238.44
2018-09-15T13:34:14.707Z,99228.93
2018-09-15T13:36:43.355Z,99232.80
2018-09-15T13:39:12.539Z,99228.42
2018-09-15T13:41:41.002Z,99227.98
2018-09-15T13:44:10.141Z,99222.56
2018-09-15T13:46:38.821Z,99223.31
2018-09-15T13:49:07.638Z,99220.78
2018-09-15T13:51:36.122Z,99213.75
2018-09-15T13:54:04.655Z,99213.92
2018-09-15T13:56:33.154Z,99215.59
2018-09-15T13:59:01.756Z,99214.51
2018-09-15T14:01:30.158Z,99210.39
2018-09-15T14:03:59.200Z,99206.46
2018-09-15T14:06:27.733Z,99193.35
2018-09-15T14:08:56.252Z,99196.98
2018-09-15T14:11:24.771Z,99190.88
2018-09-15T14:13:53.437Z,99205.47
2018-09-15T14:16:22.037Z,99203.27
2018-09-15T14:18:50.449Z,99199.74
2018-09-15T14:21:18.927Z,99193.79
2018-09-15T14:23:47.389Z,99191.02
2018-09-15T14:26:15.927Z,99182.78
2018-09-15T14:28:44.361Z,99182.67
2018-09-15T14:31:12.874Z,99187.82
2018-09-15T14:33:41.385Z,99185.05
2018-09-15T14:36:09.833Z,99182.89
2018-09-15T14:38:38.325Z,99188.91
2018-09-15T14:41:07.394Z,99176.20
2018-09-15T14:43:35.869Z,99178.45
2018-09-15T14:46:04.366Z,99175.52
2018-09-15T14:48:32.819Z,99177.53
2018-09-15T14:51:01.311Z,99179.66
2018-09-15T14:53:29.888Z,99181.35
2018-09-15T14:55:58.881Z,99179.05
2018-09-15T14:58:27.527Z,99177.05
2018-09-15T15:00:56.014Z,99185.04
2018-09-15T15:03:24.622Z,99182.07
2018-09-15T15:05:53.206Z,99174.45
2018-09-15T15:08:21.886Z,99177.19
2018-09-15T15:10:50.421Z,99181.78
2018-09-15T15:13:18.910Z,99180.64
2018-09-15T15:15:47.389Z,99176.08
2018-09-15T15:18:16.024Z,99174.21
2018-09-15T15:20:44.541Z,99176.97
2018-09-15T15:23:13.075Z,99169.25
2018-09-15T15:25:41.658Z,99169.63
2018-09-15T15:28:10.150Z,99173.38
2018-09-15T15:30:38.934Z,99172.30
2018-09-15T15:33:07.722Z,99166.85
2018-09-15T15:35:36.629Z,99162.55
2018-09-15T15:38:04.986Z,99157.81
2018-09-15T15:40:33.503Z,99162.13
2018-09-15T15:43:01.985Z,99149.89
2018-09-15T15:45:30.633Z,99149.80
2018-09-15T15:47:59.422Z,99146.02
2018-09-15T15:50:27.822Z,99153.43
2018-09-15T15:52:56.415Z,99151.72
2018-09-15T15:55:25.067Z,99151.89
2018-09-15T15:57:53.491Z,99166.25
2018-09-15T16:00:21.972Z,99164.27
2018-09-15T16:02:50.566Z,99165.13
2018-09-15T16:05:19.033Z,99160.84
2018-09-15T16:07:47.627Z,99166.24
2018-09-15T16:10:16.090Z,99170.09
2018-09-15T16:12:44.701Z,99163.97
2018-09-15T16:15:13.226Z,99167.41
2018-09-15T16:17:41.759Z,99167.84
2018-09-15T16:20:10.207Z,99173.39
2018-09-15T16:22:38.714Z,99165.44
2018-09-15T16:25:07.182Z,99175.65
2018-09-15T16:27:35.858Z,99176.50
2018-09-15T16:30:04.835Z,99171.61
2018-09-15T16:32:33.254Z,99174.80
2018-09-15T16:35:01.759Z,99174.78
2018-09-15T16:37:30.386Z,99174.61
2018-09-15T16:39:59.460Z,99177.59
2018-09-15T16:42:27.909Z,99183.19
2018-09-15T16:44:56.811Z,99187.69
2018-09-15T16:47:25.474Z,99186.11
2018-09-15T16:49:54.094Z,99198.42
2018-09-15T16:52:22.706Z,99191.80
2018-09-15T16:54:51.197Z,99187.17
2018-09-15T16:57:19.737Z,99186.73
2018-09-15T16:59:48.226Z,99186.16
2018-09-15T17:02:16.645Z,99187.77
2018-09-15T17:04:45.215Z,99189.02
2018-09-15T17:07:13.797Z,99191.63
2018-09-15T17:09:42.232Z,99192.94
2018-09-15T17:12:10.730Z,99191.46
2018-09-15T17:14:39.173Z,99198.06
2018-09-15T17:17:07.823Z,99199.72
2018-09-15T17:19:36.757Z,99198.67
2018-09-15T17:22:05.517Z,99203.16
2018-09-15T17:24:34.329Z,99205.98
2018-09-15T17:27:02.948Z,99204.83
2018-09-15T17:29:31.361Z,99206.05
2018-09-15T17:32:01.067Z,99213.72
2018-09-15T17:34:29.489Z,99209.70
2018-09-15T17:36:58.243Z,99220.91
2018-09-15T17:39:26.784Z,99216.86
2018-09-15T17:41:55.395Z,99212.11
2018-09-15T17:44:23.831Z,99219.58
2018-09-15T17:46:52.414Z,99221.05
2018-09-15T17:49:21.050Z,99222.05
2018-09-15T17:51:49.683Z,99229.83
2018-09-15T17:54:18.172Z,99224.91
2018-09-15T17:56:46.631Z,99225.57
2018-09-15T17:59:15.435Z,99228.11
2018-09-15T18:01:43.894Z,99229.92
2018-09-15T18:04:12.542Z,99228.19
2018-09-15T18:06:40.970Z,99228.95
2018-09-15T18:09:09.592Z,99231.98
2018-09-15T18:11:38.646Z,99229.55
2018-09-15T18:14:07.214Z,99230.17
2018-09-15T18:16:35.610Z,99243.95
2018-09-15T18:19:04.193Z,99238.22
2018-09-15T18:21:32.678Z,99237.27
2018-09-15T18:24:01.522Z,99246.69
2018-09-15T18:26:29.950Z,99238.84
2018-09-15T18:28:58.853Z,99240.47
2018-09-15T18:31:27.277Z,99244.84
2018-09-15T18:33:55.955Z,99245.13
2018-09-15T18:36:24.569Z,99250.09
2018-09-15T18:38:53.403Z,99249.69
2018-09-15T18:41:22.090Z,99252.27
2018-09-15T18:43:50.560Z,99258.45
2018-09-15T18:46:19.394Z,99256.19
2018-09-15T18:48:47.782Z,99262.04
2018-09-15T18:51:16.450Z,99264.14
2018-09-15T18:53:44.921Z,99263.02
2018-09-15T18:56:13.725Z,99263.13
2018-09-15T18:58:42.173Z,99265.76
2018-09-15T19:01:10.762Z,99272.11
2018-09-15T19:03:39.153Z,99271.88
2018-09-15T19:06:07.819Z,99268.97
2018-09-15T19:08:36.138Z,99273.77
2018-09-15T19:11:04.592Z,99277.81
2018-09-15T19:13:33.069Z,99281.96
2018-09-15T19:16:01.562Z,99280.00
2018-09-15T19:18:30.211Z,99285.05
2018-09-15T19:20:59.085Z,99284.17
2018-09-15T19:23:27.819Z,99289.06
2018-09-15T19:25:56.397Z,99280.68
2018-09-15T19:28:25.158Z,99285.81
2018-09-15T19:30:53.668Z,99284.00
2018-09-15T19:33:22.149Z,99287.22
2018-09-15T19:35:50.885Z,99287.59
2018-09-15T19:38:19.479Z,99295.19
2018-09-15T19:40:48.006Z,99294.08
2018-09-15T19:43:16.466Z,99284.84
2018-09-15T19:45:45.434Z,99283.29
2018-09-15T19:48:13.831Z,99296.19
2018-09-15T19:50:42.468Z,99299.67
2018-09-15T19:53:10.902Z,99297.47
2018-09-15T19:55:39.434Z,99299.77
2018-09-15T19:58:07.857Z,99304.45
2018-09-15T20:00:36.417Z,99306.80
2018-09-15T20:03:04.834Z,99305.64
2018-09-15T20:05:33.331Z,99305.99
2018-09-15T20:08:01.901Z,99309.16
2018-09-15T20:10:30.523Z,99309.41
2018-09-15T20:12:59.260Z,99309.06
2018-09-15T20:15:27.847Z,99309.25
2018-09-15T20:17:55.258Z,99307.11
2018-09-15T20:20:23.258Z,99311.05
2018-09-15T20:22:53.266Z,99309.05
2018-09-15T20:25:21.713Z,99313.64
2018-09-15T20:27:50.168Z,99308.31
2018-09-15T20:30:18.820Z,99316.28
2018-09-15T20:32:47.259Z,99321.09
2018-09-15T20:35:15.876Z,99314.37
2018-09-15T20:37:44.341Z,99313.48
2018-09-15T20:40:12.975Z,99305.91
2018-09-15T20:42:41.489Z,99309.05
2018-09-15T20:45:10.053Z,99304.48
2018-09-15T20:47:38.898Z,99307.08
2018-09-15T20:50:08.610Z,99301.83
2018-09-15T20:52:37.250Z,99299.41
2018-09-15T20:55:06.273Z,99303.72
2018-09-15T20:57:34.717Z,99302.87
2018-09-15T21:00:03.356Z,99301.30
2018-09-15T21:02:31.866Z,99308.64
2018-09-15T21:05:00.434Z,99306.26
2018-09-15T21:07:29.169Z,99312.84
2018-09-15T21:09:58.179Z,99316.88
2018-09-15T21:12:26.773Z,99319.56
2018-09-15T21:14:55.231Z,99316.52
2018-09-15T21:17:23.880Z,99313.22
2018-09-15T21:19:52.386Z,99323.67
2018-09-15T21:22:21.057Z,99319.36
2018-09-15T21:24:49.525Z,99326.51
2018-09-15T21:27:18.214Z,99316.90
2018-09-15T21:29:46.742Z,99317.40
2018-09-15T21:32:15.401Z,99320.27
2018-09-15T21:34:43.985Z,99323.92
2018-09-15T21:37:12.457Z,99321.14
2018-09-15T21:39:41.102Z,99318.83
2018-09-15T21:42:09.498Z,99319.47
2018-09-15T21:44:38.009Z,99314.58
2018-09-15T21:47:06.706Z,99312.91
2018-09-15T21:49:35.239Z,99312.42
2018-09-15T21:52:03.655Z,99305.83
2018-09-15T21:54:32.142Z,99310.81
2018-09-15T21:57:00.741Z,99315.23
2018-09-15T21:59:29.217Z,99317.92
2018-09-15T22:01:57.994Z,99316.45
2018-09-15T22:04:26.449Z,99318.55
2018-09-15T22:06:55.156Z,99312.81
2018-09-15T22:09:23.680Z,99319.55
2018-09-15T22:11:52.598Z,99319.45
2018-09-15T22:14:21.030Z,99326.91
2018-09-15T22:16:49.510Z,99324.32
2018-09-15T22:19:18.162Z,99323.83
2018-09-15T22:21:46.682Z,99326.55
2018-09-15T22:24:15.558Z,99329.58
2018-09-15T22:26:44.046Z,99327.75
2018-09-15T22:29:12.637Z,99325.67
2018-09-15T22:31:41.214Z,99329.09
2018-09-15T22:34:09.837Z,99326.92
2018-09-15T22:36:38.307Z,99324.95
2018-09-15T22:39:08.297Z,99316.16
2018-09-15T22:41:37.811Z,99316.30
2018-09-15T22:44:06.497Z,99313.63
2018-09-15T22:46:34.909Z,99314.23
2018-09-15T22:49:03.406Z,99304.59
2018-09-15T22:51:32.145Z,99307.63
2018-09-15T22:54:00.705Z,99304.81
2018-09-15T22:56:29.138Z,99304.94
2018-09-15T22:58:57.637Z,99302.15
2018-09-15T23:01:26.213Z,99304.83
2018-09-15T23:03:59.894Z,99310.80
2018-09-15T23:06:28.345Z,99314.48
2018-09-15T23:08:57.343Z,99310.56
2018-09-15T23:11:25.901Z,99310.42
2018-09-15T23:13:54.360Z,99311.52
2018-09-15T23:16:22.786Z,99309.45
2018-09-15T23:18:51.321Z,99311.63
2018-09-15T23:21:19.785Z,99313.82
2018-09-15T23:23:48.213Z,99301.39
2018-09-15T23:26:16.914Z,99294.66
2018-09-15T23:28:45.382Z,99298.92
2018-09-15T23:31:14.077Z,99291.61
2018-09-15T23:33:42.565Z,99293.66
2018-09-15T23:36:11.073Z,99294.75
2018-09-15T23:38:39.527Z,99285.36
2018-09-15T23:41:08.530Z,99286.84
2018-09-15T23:43:36.986Z,99282.78
2018-09-15T23:46:05.574Z,99279.59
2018-09-15T23:48:33.978Z,99273.73
2018-09-15T23:51:02.508Z,99267.92
2018-09-15T23:53:30.913Z,99271.94
2018-09-15T23:55:59.885Z,99269.52
2018-09-15T23:58:28.289Z,99270.97
